createdAt,value
2017-07-18T00:00:54.481Z,77.30
2017-07-18T00:03:22.922Z,77.40
2017-07-18T00:05:51.237Z,77.50
2017-07-18T00:08:19.583Z,77.50
2017-07-18T00:10:47.910Z,78.40
2017-07-18T00:13:16.280Z,78.20
2017-07-18T00:15:44.625Z,78.00
2017-07-18T00:18:13.222Z,78.00
2017-07-18T00:20:41.551Z,77.80
2017-07-18T00:23:09.876Z,77.50
2017-07-18T00:25:38.228Z,78.60
2017-07-18T00:28:06.567Z,78.50
2017-07-18T00:30:34.924Z,78.00
2017-07-18T00:33:03.261Z,77.90
2017-07-18T00:35:31.625Z,78.20
2017-07-18T00:38:00.746Z,78.00
2017-07-18T00:40:29.094Z,78.80
2017-07-18T00:42:57.462Z,78.80
2017-07-18T00:45:25.815Z,79.40
2017-07-18T00:47:54.137Z,79.70
2017-07-18T00:50:22.487Z,79.30
2017-07-18T00:52:50.847Z,79.00
2017-07-18T00:55:19.221Z,79.50
2017-07-18T00:57:47.557Z,80.40
2017-07-18T01:00:15.892Z,80.50
2017-07-18T01:02:44.274Z,80.00
2017-07-18T01:05:12.631Z,79.30
2017-07-18T01:07:40.985Z,78.70
2017-07-18T01:10:09.323Z,78.80
2017-07-18T01:12:37.698Z,79.40
2017-07-18T01:15:06.042Z,79.70
2017-07-18T01:17:34.394Z,78.80
2017-07-18T01:20:02.711Z,79.60
2017-07-18T01:22:31.085Z,80.20
2017-07-18T01:24:59.409Z,80.20
2017-07-18T01:27:27.751Z,79.70
2017-07-18T01:29:56.096Z,79.20
2017-07-18T01:32:24.444Z,79.70
2017-07-18T01:34:52.815Z,79.30
2017-07-18T01:37:21.138Z,79.30
2017-07-18T01:39:49.492Z,80.20
2017-07-18T01:42:17.828Z,79.90
2017-07-18T01:44:46.176Z,79.60
2017-07-18T01:47:14.531Z,79.20
2017-07-18T01:49:43.678Z,79.70
2017-07-18T01:52:12.015Z,79.40
2017-07-18T01:54:40.353Z,80.30
2017-07-18T01:57:08.693Z,80.20
2017-07-18T01:59:37.030Z,80.10
2017-07-18T02:02:05.380Z,80.00
2017-07-18T02:04:33.936Z,79.90
2017-07-18T02:07:02.287Z,79.80
2017-07-18T02:09:30.625Z,79.60
2017-07-18T02:11:58.959Z,80.00
2017-07-18T02:14:27.294Z,80.30
2017-07-18T02:16:55.658Z,80.30
2017-07-18T02:19:23.975Z,80.10
2017-07-18T02:21:52.419Z,79.60
2017-07-18T02:24:20.794Z,79.50
2017-07-18T02:26:49.132Z,79.50
2017-07-18T02:29:17.494Z,79.70
2017-07-18T02:31:45.837Z,79.80
2017-07-18T02:34:14.184Z,79.60
2017-07-18T02:36:42.517Z,79.50
2017-07-18T02:39:10.878Z,79.70
2017-07-18T02:41:39.215Z,79.90
2017-07-18T02:44:07.580Z,80.20
2017-07-18T02:46:35.910Z,80.00
2017-07-18T02:49:04.243Z,79.70
2017-07-18T02:51:32.597Z,79.70
2017-07-18T02:54:00.911Z,80.20
2017-07-18T02:56:29.263Z,79.90
2017-07-18T02:58:57.597Z,79.90
2017-07-18T03:01:25.942Z,79.00
2017-07-18T03:03:54.296Z,78.50
2017-07-18T03:06:22.686Z,78.70
2017-07-18T03:08:51.014Z,78.30
2017-07-18T03:11:19.368Z,78.60
2017-07-18T03:13:47.685Z,78.40
2017-07-18T03:16:16.026Z,78.20
2017-07-18T03:18:44.356Z,77.90
2017-07-18T03:21:12.753Z,77.60
2017-07-18T03:23:41.886Z,77.50
2017-07-18T03:26:10.243Z,78.30
2017-07-18T03:28:38.596Z,79.00
2017-07-18T03:31:06.909Z,78.20
2017-07-18T03:33:36.207Z,77.90
2017-07-18T03:36:04.543Z,78.20
2017-07-18T03:38:32.931Z,78.90
2017-07-18T03:41:01.247Z,77.70
2017-07-18T03:43:29.604Z,77.90
2017-07-18T03:45:57.973Z,78.20
2017-07-18T03:48:26.332Z,77.80
2017-07-18T03:50:54.712Z,77.50
2017-07-18T03:53:23.049Z,77.80
2017-07-18T03:55:51.607Z,77.70
2017-07-18T03:58:19.927Z,78.00
2017-07-18T04:00:48.275Z,77.80
2017-07-18T04:03:16.622Z,78.00
2017-07-18T04:05:45.593Z,78.70
2017-07-18T04:08:14.072Z,78.40
2017-07-18T04:10:42.654Z,79.40
2017-07-18T04:13:11.012Z,79.50
2017-07-18T04:15:39.432Z,80.20
2017-07-18T04:18:07.738Z,80.80
2017-07-18T04:20:36.118Z,80.10
2017-07-18T04:23:04.474Z,79.50
2017-07-18T04:25:32.787Z,79.70
2017-07-18T04:31:01.533Z,80.80
2017-07-18T04:33:29.867Z,80.80
2017-07-18T04:35:58.205Z,80.70
2017-07-18T04:38:26.556Z,80.50
2017-07-18T04:40:54.960Z,81.40
2017-07-18T04:43:23.295Z,81.50
2017-07-18T04:45:51.622Z,80.90
2017-07-18T04:48:19.976Z,81.00
2017-07-18T04:50:48.290Z,80.70
2017-07-18T04:53:16.611Z,80.30
2017-07-18T04:55:44.954Z,80.50
2017-07-18T04:58:13.279Z,80.70
2017-07-18T05:00:41.628Z,80.80
2017-07-18T05:03:09.942Z,81.20
2017-07-18T05:05:38.286Z,81.00
2017-07-18T05:08:06.605Z,81.20
2017-07-18T05:10:34.955Z,80.90
2017-07-18T05:13:03.277Z,80.90
2017-07-18T05:15:31.605Z,81.00
2017-07-18T05:17:59.950Z,81.30
2017-07-18T05:20:28.272Z,81.50
2017-07-18T05:22:56.616Z,81.50
2017-07-18T05:25:24.936Z,81.20
2017-07-18T05:27:53.286Z,81.50
2017-07-18T05:30:21.590Z,81.20
2017-07-18T05:32:49.964Z,81.40
2017-07-18T05:35:18.287Z,81.50
2017-07-18T05:37:46.598Z,81.20
2017-07-18T05:40:14.937Z,81.30
2017-07-18T05:42:43.270Z,81.40
2017-07-18T05:45:11.623Z,81.50
2017-07-18T05:47:39.958Z,81.50
2017-07-18T05:50:08.332Z,81.60
2017-07-18T05:52:36.653Z,81.80
2017-07-18T05:55:05.008Z,81.90
2017-07-18T05:57:33.331Z,82.00
2017-07-18T06:00:01.650Z,81.50
2017-07-18T06:02:30.016Z,80.80
2017-07-18T06:04:58.384Z,81.30
2017-07-18T06:07:26.728Z,82.20
2017-07-18T06:09:55.197Z,80.80
2017-07-18T06:12:23.632Z,81.00
2017-07-18T06:14:52.080Z,81.20
2017-07-18T06:17:20.434Z,82.20
2017-07-18T06:19:48.894Z,81.30
2017-07-18T06:22:17.241Z,80.40
2017-07-18T06:24:45.630Z,79.20
2017-07-18T06:27:14.079Z,79.90
2017-07-18T06:29:42.408Z,79.40
2017-07-18T06:32:10.846Z,77.40
2017-07-18T06:34:39.177Z,80.50
2017-07-18T06:37:07.560Z,79.40
2017-07-18T06:39:35.904Z,78.00
2017-07-18T06:42:04.224Z,75.70
2017-07-18T06:44:32.574Z,76.60
2017-07-18T06:47:00.915Z,75.10
2017-07-18T06:49:29.256Z,75.90
2017-07-18T06:51:57.575Z,74.10
2017-07-18T06:54:25.930Z,72.80
2017-07-18T06:56:54.239Z,73.30
2017-07-18T06:59:22.574Z,72.80
2017-07-18T07:01:50.885Z,71.90
2017-07-18T07:04:19.239Z,71.20
2017-07-18T07:06:47.592Z,71.50
2017-07-18T07:09:15.915Z,70.50
2017-07-18T07:11:44.257Z,69.10
2017-07-18T07:14:12.568Z,68.60
2017-07-18T07:16:40.916Z,69.70
2017-07-18T07:19:09.249Z,69.20
2017-07-18T07:21:37.595Z,70.80
2017-07-18T07:24:05.911Z,67.80
2017-07-18T07:26:34.266Z,70.10
2017-07-18T07:29:02.582Z,69.30
2017-07-18T07:31:30.923Z,69.10
2017-07-18T07:33:59.243Z,67.30
2017-07-18T07:36:27.608Z,65.20
2017-07-18T07:38:55.980Z,68.10
2017-07-18T07:41:24.300Z,68.00
2017-07-18T07:43:52.642Z,67.00
2017-07-18T07:46:21.060Z,66.90
2017-07-18T07:48:49.818Z,66.60
2017-07-18T07:51:18.134Z,66.60
2017-07-18T07:53:46.475Z,65.30
2017-07-18T08:02:15.331Z,67.40
2017-07-18T08:04:43.690Z,65.10
2017-07-18T08:07:12.058Z,64.60
2017-07-18T08:09:40.404Z,66.20
2017-07-18T08:15:08.264Z,64.70
2017-07-18T08:17:36.591Z,61.50
2017-07-18T08:20:04.954Z,62.00
2017-07-18T08:22:33.278Z,61.30
2017-07-18T08:25:01.599Z,61.30
2017-07-18T08:27:29.947Z,63.10
2017-07-18T08:29:58.285Z,64.70
2017-07-18T08:32:26.631Z,64.00
2017-07-18T08:34:54.968Z,63.70
2017-07-18T08:37:23.321Z,65.60
2017-07-18T08:39:51.641Z,65.50
2017-07-18T08:42:20.004Z,63.60
2017-07-18T08:44:48.336Z,64.20
2017-07-18T08:47:16.685Z,64.70
2017-07-18T08:49:45.010Z,61.30
2017-07-18T08:52:13.386Z,62.20
2017-07-18T08:54:41.722Z,60.40
2017-07-18T08:57:10.040Z,59.20
2017-07-18T08:59:38.393Z,59.20
2017-07-18T09:02:06.722Z,59.20
2017-07-18T09:04:35.083Z,59.10
2017-07-18T09:07:03.428Z,58.90
2017-07-18T09:09:31.794Z,60.50
2017-07-18T09:12:00.199Z,56.90
2017-07-18T09:14:28.555Z,59.20
2017-07-18T09:16:56.881Z,59.60
2017-07-18T09:19:25.229Z,57.20
2017-07-18T09:21:53.560Z,55.60
2017-07-18T09:24:21.892Z,56.70
2017-07-18T09:26:50.262Z,56.70
2017-07-18T09:29:18.582Z,58.00
2017-07-18T09:31:46.936Z,56.40
2017-07-18T09:34:15.274Z,56.00
2017-07-18T09:36:43.627Z,57.00
2017-07-18T09:39:11.947Z,55.50
2017-07-18T09:41:40.296Z,54.50
2017-07-18T09:44:08.627Z,55.70
2017-07-18T09:46:36.992Z,53.90
2017-07-18T09:49:05.346Z,55.10
2017-07-18T09:51:33.681Z,53.70
2017-07-18T09:54:02.022Z,56.30
2017-07-18T09:56:30.342Z,54.50
2017-07-18T09:58:58.703Z,54.10
2017-07-18T10:01:27.017Z,55.00
2017-07-18T10:03:55.360Z,55.00
2017-07-18T10:06:23.692Z,52.90
2017-07-18T10:08:52.047Z,52.40
2017-07-18T10:11:20.377Z,52.50
2017-07-18T10:13:48.714Z,52.80
2017-07-18T10:16:17.046Z,52.40
2017-07-18T10:18:45.373Z,55.00
2017-07-18T10:21:13.722Z,53.30
2017-07-18T10:23:42.060Z,53.20
2017-07-18T10:26:10.399Z,51.60
2017-07-18T10:28:38.725Z,52.00
2017-07-18T10:31:07.073Z,51.10
2017-07-18T10:33:35.397Z,52.50
2017-07-18T10:36:03.748Z,52.50
2017-07-18T10:38:32.081Z,50.50
2017-07-18T10:41:00.433Z,51.60
2017-07-18T10:43:28.774Z,52.50
2017-07-18T10:45:57.127Z,51.40
2017-07-18T10:48:25.463Z,50.00
2017-07-18T10:50:53.830Z,47.40
2017-07-18T10:53:22.160Z,47.40
2017-07-18T10:55:50.487Z,48.80
2017-07-18T10:58:18.854Z,47.60
2017-07-18T11:00:47.183Z,49.10
2017-07-18T11:03:15.531Z,50.10
2017-07-18T11:05:43.856Z,48.00
2017-07-18T11:08:12.213Z,45.00
2017-07-18T11:10:40.542Z,48.50
2017-07-18T11:13:09.756Z,48.10
2017-07-18T11:15:38.079Z,49.70
2017-07-18T11:18:06.417Z,50.00
2017-07-18T11:20:34.757Z,51.00
2017-07-18T11:23:03.122Z,47.60
2017-07-18T11:25:31.458Z,48.90
2017-07-18T11:27:59.774Z,50.50
2017-07-18T11:30:28.138Z,49.30
2017-07-18T11:32:56.445Z,47.50
2017-07-18T11:35:24.791Z,49.00
2017-07-18T11:37:53.131Z,47.60
2017-07-18T11:40:21.479Z,45.60
2017-07-18T11:42:49.799Z,47.00
2017-07-18T11:45:18.160Z,47.30
2017-07-18T11:47:46.501Z,47.80
2017-07-18T11:50:14.860Z,46.60
2017-07-18T11:52:43.186Z,49.40
2017-07-18T11:55:11.529Z,47.50
2017-07-18T11:57:39.870Z,49.50
2017-07-18T12:00:08.206Z,48.00
2017-07-18T12:02:36.572Z,46.20
2017-07-18T12:05:04.908Z,44.90
2017-07-18T12:07:33.524Z,46.60
2017-07-18T12:10:01.852Z,45.20
2017-07-18T12:12:30.379Z,44.70
2017-07-18T12:14:58.705Z,47.80
2017-07-18T12:17:27.063Z,45.90
2017-07-18T12:19:55.406Z,47.70
2017-07-18T12:22:23.770Z,48.40
2017-07-18T12:24:52.151Z,47.80
2017-07-18T12:27:20.512Z,46.70
2017-07-18T12:29:48.875Z,45.30
2017-07-18T12:32:17.196Z,44.70
2017-07-18T12:34:45.566Z,45.10
2017-07-18T12:37:13.902Z,43.60
2017-07-18T12:39:42.249Z,44.90
2017-07-18T12:42:10.574Z,45.80
2017-07-18T12:44:38.932Z,43.80
2017-07-18T12:47:07.260Z,44.30
2017-07-18T12:49:35.610Z,45.00
2017-07-18T12:52:03.930Z,45.00
2017-07-18T12:54:32.269Z,42.10
2017-07-18T12:57:00.621Z,45.10
2017-07-18T12:59:28.967Z,44.10
2017-07-18T13:01:57.311Z,47.00
2017-07-18T13:04:25.643Z,46.40
2017-07-18T13:06:54.048Z,45.90
2017-07-18T13:09:22.378Z,44.40
2017-07-18T13:11:50.722Z,44.70
2017-07-18T13:14:19.042Z,43.00
2017-07-18T13:16:47.391Z,44.60
2017-07-18T13:19:15.718Z,44.40
2017-07-18T13:21:44.074Z,44.20
2017-07-18T13:24:13.322Z,43.90
2017-07-18T13:26:41.642Z,44.50
2017-07-18T13:29:09.993Z,46.00
2017-07-18T13:31:38.328Z,44.00
2017-07-18T13:34:06.691Z,43.80
2017-07-18T13:36:35.031Z,43.60
2017-07-18T13:39:03.382Z,43.90
2017-07-18T13:41:31.719Z,42.20
2017-07-18T13:44:00.066Z,43.70
2017-07-18T13:46:28.395Z,45.00
2017-07-18T13:48:56.763Z,40.60
2017-07-18T13:51:25.086Z,42.70
2017-07-18T13:53:53.400Z,43.20
2017-07-18T13:56:21.749Z,44.50
2017-07-18T13:58:51.004Z,42.20
2017-07-18T14:01:19.410Z,44.40
2017-07-18T14:03:47.767Z,43.00
2017-07-18T14:06:16.118Z,41.60
2017-07-18T14:08:44.552Z,42.90
2017-07-18T14:11:12.921Z,41.70
2017-07-18T14:13:41.230Z,43.00
2017-07-18T14:16:09.583Z,41.50
2017-07-18T14:18:37.949Z,42.50
2017-07-18T14:21:06.294Z,40.30
2017-07-18T14:23:34.818Z,42.60
2017-07-18T14:26:03.139Z,42.10
2017-07-18T14:28:31.545Z,44.00
2017-07-18T14:30:59.883Z,42.00
2017-07-18T14:33:28.238Z,40.60
2017-07-18T14:35:56.594Z,40.10
2017-07-18T14:38:26.092Z,40.40
2017-07-18T14:40:54.436Z,40.40
2017-07-18T14:43:22.925Z,39.80
2017-07-18T14:45:51.324Z,39.70
2017-07-18T14:48:20.595Z,39.90
2017-07-18T14:50:48.948Z,39.70
2017-07-18T14:53:17.277Z,42.10
2017-07-18T14:55:45.644Z,39.60
2017-07-18T14:58:13.979Z,38.90
2017-07-18T15:00:42.446Z,39.50
2017-07-18T15:03:10.776Z,39.40
2017-07-18T15:05:39.242Z,39.70
2017-07-18T15:08:07.572Z,39.50
2017-07-18T15:10:35.928Z,40.80
2017-07-18T15:13:04.251Z,41.40
2017-07-18T15:15:32.646Z,42.10
2017-07-18T15:18:00.985Z,43.90
2017-07-18T15:20:29.320Z,43.80
2017-07-18T15:22:57.670Z,43.00
2017-07-18T15:25:27.165Z,43.30
2017-07-18T15:27:55.543Z,43.70
2017-07-18T15:30:24.874Z,44.00
2017-07-18T15:32:53.548Z,43.10
2017-07-18T15:35:21.882Z,42.30
2017-07-18T15:37:50.240Z,42.80
2017-07-18T15:40:19.775Z,43.30
2017-07-18T15:42:48.140Z,43.30
2017-07-18T15:45:16.466Z,42.60
2017-07-18T15:47:44.797Z,42.20
2017-07-18T15:50:13.151Z,41.50
2017-07-18T15:52:41.587Z,43.60
2017-07-18T15:55:09.937Z,40.80
2017-07-18T15:57:38.276Z,40.90
2017-07-18T16:00:06.692Z,42.10
2017-07-18T16:02:48.223Z,41.20
2017-07-18T16:05:16.592Z,41.50
2017-07-18T16:07:44.982Z,42.30
2017-07-18T16:10:13.322Z,42.20
2017-07-18T16:12:41.676Z,42.80
2017-07-18T16:15:10.015Z,42.60
2017-07-18T16:17:38.381Z,43.30
2017-07-18T16:20:06.704Z,42.30
2017-07-18T16:22:35.088Z,42.80
2017-07-18T16:25:03.475Z,43.10
2017-07-18T16:27:31.824Z,45.10
2017-07-18T16:30:00.170Z,43.60
2017-07-18T16:32:28.543Z,43.80
2017-07-18T16:34:57.006Z,44.20
2017-07-18T16:37:25.342Z,44.10
2017-07-18T16:39:53.707Z,43.40
2017-07-18T16:42:22.061Z,44.20
2017-07-18T16:44:50.432Z,42.80
2017-07-18T16:47:18.795Z,43.70
2017-07-18T16:49:48.133Z,42.90
2017-07-18T16:52:16.479Z,42.30
2017-07-18T16:54:44.868Z,42.70
2017-07-18T16:57:13.279Z,44.20
2017-07-18T16:59:41.631Z,45.20
2017-07-18T17:02:09.945Z,45.00
2017-07-18T17:04:38.277Z,45.40
2017-07-18T17:07:06.622Z,44.50
2017-07-18T17:09:34.967Z,44.20
2017-07-18T17:12:03.337Z,44.80
2017-07-18T17:14:31.671Z,44.00
2017-07-18T17:17:00.106Z,44.20
2017-07-18T17:19:28.465Z,45.90
2017-07-18T17:21:56.843Z,45.30
2017-07-18T17:24:25.186Z,44.60
2017-07-18T17:26:53.745Z,45.20
2017-07-18T17:29:23.028Z,45.90
2017-07-18T17:31:51.403Z,46.20
2017-07-18T17:34:19.736Z,46.00
2017-07-18T17:36:48.072Z,46.70
2017-07-18T17:39:16.498Z,47.00
2017-07-18T17:41:44.833Z,46.70
2017-07-18T17:44:13.198Z,44.30
2017-07-18T17:46:41.539Z,46.20
2017-07-18T17:49:09.900Z,44.90
2017-07-18T17:51:53.153Z,47.00
2017-07-18T17:54:21.513Z,47.10
2017-07-18T17:56:49.847Z,45.50
2017-07-18T17:59:18.209Z,46.60
2017-07-18T18:01:46.538Z,46.40
2017-07-18T18:04:14.863Z,46.90
2017-07-18T18:06:43.208Z,48.50
2017-07-18T18:09:11.570Z,48.20
2017-07-18T18:11:40.038Z,49.40
2017-07-18T18:14:08.381Z,48.70
2017-07-18T18:16:36.764Z,49.30
2017-07-18T18:19:05.098Z,49.30
2017-07-18T18:21:33.683Z,50.90
2017-07-18T18:24:02.010Z,50.60
2017-07-18T18:26:30.371Z,51.00
2017-07-18T18:28:58.685Z,51.30
2017-07-18T18:31:27.078Z,51.30
2017-07-18T18:33:55.438Z,51.60
2017-07-18T18:36:23.777Z,51.70
2017-07-18T18:38:52.172Z,52.60
2017-07-18T18:41:20.499Z,52.20
2017-07-18T18:43:48.847Z,51.50
2017-07-18T18:46:17.176Z,52.60
2017-07-18T18:48:45.531Z,52.80
2017-07-18T18:51:13.943Z,51.70
2017-07-18T18:53:42.375Z,52.40
2017-07-18T18:56:10.764Z,53.00
2017-07-18T18:58:39.090Z,54.10
2017-07-18T19:01:07.563Z,55.00
2017-07-18T19:03:35.960Z,54.40
2017-07-18T19:06:04.348Z,55.10
2017-07-18T19:08:32.669Z,54.90
2017-07-18T19:11:01.027Z,54.40
2017-07-18T19:13:30.480Z,54.50
2017-07-18T19:15:58.922Z,55.00
2017-07-18T19:18:27.274Z,55.50
2017-07-18T19:20:55.664Z,55.90
2017-07-18T19:23:24.009Z,56.00
2017-07-18T19:25:52.359Z,56.30
2017-07-18T19:28:20.711Z,56.10
2017-07-18T19:30:49.059Z,56.90
2017-07-18T19:33:17.421Z,57.30
2017-07-18T19:35:45.759Z,57.90
2017-07-18T19:38:14.119Z,57.90
2017-07-18T19:40:42.448Z,58.50
2017-07-18T19:43:10.807Z,57.90
2017-07-18T19:45:39.166Z,58.90
2017-07-18T19:48:07.511Z,59.40
2017-07-18T19:50:35.915Z,59.40
2017-07-18T19:53:04.280Z,59.10
2017-07-18T19:55:32.670Z,59.40
2017-07-18T19:58:01.022Z,60.20
2017-07-18T20:00:29.449Z,60.50
2017-07-18T20:02:57.786Z,60.90
2017-07-18T20:05:26.294Z,61.80
2017-07-18T20:07:54.821Z,61.90
2017-07-18T20:10:23.170Z,62.50
2017-07-18T20:12:51.571Z,62.60
2017-07-18T20:15:20.016Z,62.00
2017-07-18T20:17:48.333Z,62.70
2017-07-18T20:20:17.046Z,62.80
2017-07-18T20:22:45.410Z,62.70
2017-07-18T20:25:13.755Z,63.40
2017-07-18T20:27:42.137Z,63.40
2017-07-18T20:30:10.629Z,62.70
2017-07-18T20:32:39.105Z,62.60
2017-07-18T20:35:07.548Z,62.40
2017-07-18T20:37:35.895Z,63.00
2017-07-18T20:40:04.230Z,63.70
2017-07-18T20:42:32.623Z,64.30
2017-07-18T20:45:00.962Z,64.10
2017-07-18T20:47:29.301Z,64.60
2017-07-18T20:49:57.651Z,64.80
2017-07-18T20:52:25.990Z,66.00
2017-07-18T20:54:54.352Z,66.50
2017-07-18T20:57:22.711Z,65.90
2017-07-18T20:59:51.050Z,65.20
2017-07-18T21:02:19.376Z,65.60
2017-07-18T21:04:47.732Z,65.80
2017-07-18T21:07:16.080Z,66.20
2017-07-18T21:09:44.656Z,66.50
2017-07-18T21:12:12.986Z,67.70
2017-07-18T21:14:41.335Z,67.50
2017-07-18T21:17:09.689Z,67.40
2017-07-18T21:19:38.011Z,66.50
2017-07-18T21:22:06.366Z,67.10
2017-07-18T21:24:34.703Z,67.00
2017-07-18T21:27:03.917Z,67.30
2017-07-18T21:29:32.244Z,67.20
2017-07-18T21:32:00.603Z,67.30
2017-07-18T21:34:49.133Z,66.90
2017-07-18T21:37:17.482Z,67.60
2017-07-18T21:39:45.812Z,68.50
2017-07-18T21:42:14.155Z,69.20
2017-07-18T21:44:42.513Z,69.60
2017-07-18T21:47:10.839Z,69.00
2017-07-18T21:49:39.186Z,69.50
2017-07-18T21:52:07.533Z,69.20
2017-07-18T21:54:35.882Z,69.70
2017-07-18T21:57:04.223Z,69.90
2017-07-18T21:59:32.582Z,69.40
2017-07-18T22:02:00.914Z,69.90
2017-07-18T22:04:29.252Z,69.70
2017-07-18T22:06:57.664Z,70.30
2017-07-18T22:09:25.986Z,70.40
2017-07-18T22:11:54.335Z,71.20
2017-07-18T22:14:22.686Z,70.80
2017-07-18T22:16:51.034Z,71.00
2017-07-18T22:19:19.366Z,70.80
2017-07-18T22:21:47.733Z,71.20
2017-07-18T22:24:16.073Z,71.60
2017-07-18T22:26:44.432Z,71.70
2017-07-18T22:29:12.764Z,72.00
2017-07-18T22:31:41.112Z,72.10
2017-07-18T22:34:09.470Z,71.90
2017-07-18T22:36:37.795Z,72.60
2017-07-18T22:39:06.136Z,72.10
2017-07-18T22:41:34.484Z,72.10
2017-07-18T22:44:02.856Z,72.60
2017-07-18T22:46:31.192Z,72.70
2017-07-18T22:48:59.554Z,72.50
2017-07-18T22:51:27.876Z,72.50
2017-07-18T22:53:56.246Z,72.20
2017-07-18T22:56:24.633Z,72.50
2017-07-18T22:58:52.972Z,72.70
2017-07-18T23:01:21.337Z,73.30
2017-07-18T23:03:49.659Z,73.50
2017-07-18T23:06:18.019Z,73.10
2017-07-18T23:08:46.358Z,72.60
2017-07-18T23:11:14.783Z,72.50
2017-07-18T23:13:43.110Z,72.70
2017-07-18T23:16:11.477Z,72.70
2017-07-18T23:18:39.812Z,73.40
2017-07-18T23:21:08.170Z,73.70
2017-07-18T23:23:36.520Z,74.00
2017-07-18T23:26:04.856Z,73.80
2017-07-18T23:28:33.227Z,74.60
2017-07-18T23:31:01.591Z,74.20
2017-07-18T23:33:29.953Z,74.40
2017-07-18T23:35:58.287Z,74.20
2017-07-18T23:38:26.642Z,73.20
2017-07-18T23:40:54.983Z,73.80
2017-07-18T23:43:23.376Z,74.00
2017-07-18T23:45:51.749Z,74.00
2017-07-18T23:48:20.125Z,74.50
2017-07-18T23:50:48.456Z,74.60
2017-07-18T23:53:16.804Z,74.40
2017-07-18T23:55:45.173Z,74.10
2017-07-18T23:58:13.507Z,74.10
